CHICAGO AURORA MUNICIPAL, IL, United States (KARR) 41-46N 088-28W 215M
Wind: Calm:0
Visibility: 10 mile(s):0
Sky conditions: clear
Temperature: 69.1 F (20.6 C)
Dew Point: 64.9 F (18.3 C)
Relative Humidity: 86%
Pressure (altimeter): 29.82 in. Hg (1009 hPa)
ob: KARR 270652Z AUTO 00000KT 10SM CLR 21/18 A2982 RMK AO2 SLP091 T02060183
Raw METAR:KARR 270652Z AUTO 00000KT 10SM CLR 21/18 A2982 RMK AO2 SLP091 T02060183
cycle: 7
Back to top

CHICAGO/WEST CH DUPAGE, IL, United States (KDPA) 41-54N 88-15W 230M
Wind: Calm:0
Visibility: 8 mile(s):0
Sky conditions: clear
Temperature: 68.0 F (20.0 C)
Dew Point: 64.0 F (17.8 C)
Relative Humidity: 87%
Pressure (altimeter): 29.81 in. Hg (1009 hPa)
ob: KDPA 270652Z 00000KT 8SM CLR 20/18 A2981 RMK AO2 SLP089 T02000178
Raw METAR:KDPA 270652Z 00000KT 8SM CLR 20/18 A2981 RMK AO2 SLP089 T02000178
cycle: 7
Back to top

De Kalb, De Kalb Taylor Municipal Airport, IL, United States (KDKB) 41-55-55N 088-42-30W
Wind: from the SSW (200 degrees) at 3 MPH (3 KT):0
Visibility: 10 mile(s):0
Sky conditions: clear
Temperature: 66.2 F (19.0 C)
Dew Point: 63.7 F (17.6 C)
Relative Humidity: 91%
Pressure (altimeter): 29.84 in. Hg (1010 hPa)
ob: KDKB 270735Z AUTO 20003KT 10SM CLR 19/18 A2984 RMK AO2 T01900176
Raw METAR:KDKB 270735Z AUTO 20003KT 10SM CLR 19/18 A2984 RMK AO2 T01900176
cycle: 7
Back to top

Joliet, Joliet Regional Airport, IL, United States (KJOT) 41-31-05N 088-10-31W
Wind: Calm:0
Visibility: 10 mile(s):0
Sky conditions: clear
Temperature: 68.7 F (20.4 C)
Dew Point: 68.0 F (20.0 C)
Relative Humidity: 97%
Pressure (altimeter): 29.82 in. Hg (1009 hPa)
ob: KJOT 270735Z AUTO 00000KT 10SM CLR 20/20 A2982 RMK AO2 T02040200
Raw METAR:KJOT 270735Z AUTO 00000KT 10SM CLR 20/20 A2982 RMK AO2 T02040200
cycle: 7
Back to top

Kankakee, Greater Kankakee Airport, IL, United States (KIKK) 41-04-17N 087-50-47W
Wind: Calm:0
Visibility: 10 mile(s):0
Sky conditions: clear
Temperature: 68.4 F (20.2 C)
Dew Point: 62.2 F (16.8 C)
Relative Humidity: 80%
Pressure (altimeter): 29.84 in. Hg (1010 hPa)
ob: KIKK 270735Z AUTO 00000KT 10SM CLR 20/17 A2984 RMK AO2 T02020168
Raw METAR:KIKK 270735Z AUTO 00000KT 10SM CLR 20/17 A2984 RMK AO2 T02020168
cycle: 7
Back to top

Morris, Morris Municipal-James R Washburn Field Airport, IL, United States (KC09) 41-25-31N 088-25-07W
Wind: from the WSW (250 degrees) at 3 MPH (3 KT):0
Visibility: 10 mile(s):0
Sky conditions: clear
Temperature: 72.3 F (22.4 C)
Dew Point: 65.7 F (18.7 C)
Relative Humidity: 79%
Pressure (altimeter): 29.81 in. Hg (1009 hPa)
ob: KC09 270735Z AUTO 25003KT 10SM CLR 22/19 A2981 RMK AO2 T02240187
Raw METAR:KC09 270735Z AUTO 25003KT 10SM CLR 22/19 A2981 RMK AO2 T02240187
cycle: 7
Back to top

Peru, Illinois Valley Regional-Walter A Duncan Field Airport, IL, United States (KVYS) 41-21-07N 089-09-11W
Wind: from the S (170 degrees) at 3 MPH (3 KT):0
Visibility: 10 mile(s):0
Sky conditions: clear
Temperature: 75.6 F (24.2 C)
Dew Point: 69.8 F (21.0 C)
Relative Humidity: 82%
Pressure (altimeter): 29.82 in. Hg (1009 hPa)
ob: KVYS 270735Z AUTO 17003KT 10SM CLR 24/21 A2982 RMK AO2 T02420210
Raw METAR:KVYS 270735Z AUTO 17003KT 10SM CLR 24/21 A2982 RMK AO2 T02420210
cycle: 7
Back to top

Rochelle, Rochelle Municipal-Koritz Field Airport, IL, United States (KRPJ) 41-53-35N 089-04-42W
Wind: Calm:0
Visibility: 10 mile(s):0
Sky conditions: clear
Temperature: 66.2 F (19.0 C)
Dew Point: 64.4 F (18.0 C)
Relative Humidity: 93%
Pressure (altimeter): 29.83 in. Hg (1010 hPa)
ob: KRPJ 270735Z AUTO 00000KT 10SM CLR 19/18 A2983 RMK AO2 T01900180
Raw METAR:KRPJ 270735Z AUTO 00000KT 10SM CLR 19/18 A2983 RMK AO2 T01900180
cycle: 7
Back to top